Latest Coastal Weather Observations for Roebourne Airport

IDW60701

Issued at 10:53 pm WST Saturday 22 July 2017 (issued every 10 minutes, with the page automatically refreshed every 10 minutes)

About coastal observations | Map of coastal stations | Coastal observations for WA | Marine services | Other Formats
Station Details ID: 004090 Name: ROEBOURNE AERO Lat: -20.76 Lon: 117.16 Height: 10.7 m
Data from the previous 72 hours. | See also: Recent months at Roebourne Airport
Date/Time
WST
Temp
°C
Wind Pressure Rain since
9am
mm
Weather Cloud Vis
km
Sea
Height
m
Swell
Dir  Spd
kts
Gust
kts
hPa Trend Height
m
Period
s
Dir
22/10:30pm 15.9 CALM 0 0 1016.6 - 0.0 - - - - - - -
22/10:00pm 16.5 CALM 0 0 1016.6 - 0.0 - - - - - - -
22/09:30pm 16.4 CALM 0 0 1016.6 - 0.0 - - - - - - -
22/09:00pm 16.7 CALM 0 0 1016.5 - 0.0 - - - - - - -
22/08:30pm 18.2 NNW 2 3 1016.3 - 0.0 - - - - - - -
22/08:00pm 19.0 NW 3 4 1016.2 - 0.0 - - - - - - -
22/07:30pm 19.3 NW 4 5 1016.0 - 0.0 - - - - - - -
22/07:00pm 20.2 N 4 5 1015.7 - 0.0 - - - - - - -
22/06:30pm 20.8 NNW 5 6 1015.3 - 0.0 - - - - - - -
22/06:00pm 21.9 NNW 7 8 1014.8 - 0.0 - - - - - - -
22/05:30pm 23.1 NNW 10 11 1014.6 - 0.0 - - - - - - -
22/05:00pm 24.6 N 10 12 1014.4 - 0.0 - - - - - - -
22/04:30pm 25.3 N 11 14 1014.1 - 0.0 - - - - - - -
22/04:00pm 25.9 NNE 11 13 1013.9 - 0.0 - - - - - - -
22/03:30pm 26.4 N 12 15 1013.9 - 0.0 - - - - - - -
22/03:00pm 26.4 NNE 12 14 1014.0 - 0.0 - - - - - - -
22/02:30pm 26.9 NNE 11 15 1014.0 - 0.0 - - - - - - -
22/02:00pm 27.2 NNE 13 17 1014.3 - 0.0 - - - - - - -
22/01:30pm 27.6 NE 14 17 1014.5 - 0.0 - - - - - - -
22/01:00pm 27.7 NE 13 17 1014.9 - 0.0 - - - - - - -
22/12:30pm 27.2 NE 12 16 1015.5 - 0.0 - - - - - - -
22/12:00pm 26.7 NE 12 15 1016.0 - 0.0 - - - - - - -
22/11:30am 27.6 ENE 11 15 1016.5 - 0.0 - - - - - - -
22/11:00am 27.1 E 9 13 1016.8 - 0.0 - - - - - - -
22/10:30am 26.1 ESE 9 13 1017.0 - 0.0 - - - - - - -
22/10:00am 25.4 SE 12 16 1017.2 - 0.0 - - - - - - -
22/09:30am 23.7 ESE 7 10 1017.3 - 0.0 - - - - - - -
22/09:00am 21.8 ESE 8 11 1017.4 - 0.0 - - - - - - -
22/08:30am 20.1 ESE 5 9 1017.4 - 0.0 - - - - - - -
22/08:00am 17.0 E 2 4 1017.2 - 0.0 - - - - - - -
22/07:30am 13.6 ENE 3 5 1016.8 - 0.0 - - - - - - -
22/07:00am 11.3 SSE 4 6 1016.2 - 0.0 - - - - - - -
22/06:30am 11.2 NNE 2 4 1015.8 - 0.0 - - - - - - -
22/06:00am 12.2 NNE 4 8 1015.4 - 0.0 - - - - - - -
22/05:30am 13.6 WSW 1 5 1014.8 - 0.0 - - - - - - -
22/05:00am 15.1 WSW 5 6 1014.7 - 0.0 - - - - - - -
22/04:30am 15.5 SW 5 7 1014.9 - 0.0 - - - - - - -
22/04:00am 15.5 W 5 7 1015.1 - 0.0 - - - - - - -
22/03:30am 16.0 SW 8 10 1015.1 - 0.0 - - - - - - -
22/03:00am 15.6 SW 6 8 1015.2 - 0.0 - - - - - - -
22/02:30am 16.9 WSW 5 7 1015.6 - 0.0 - - - - - - -
22/02:00am 17.4 WSW 5 9 1015.8 - 0.0 - - - - - - -
22/01:30am 18.0 WSW 8 10 1016.0 - 0.0 - - - - - - -
22/01:00am 18.3 W 9 11 1016.2 - 0.0 - - - - - - -
22/12:30am 18.4 W 7 9 1016.3 - 0.0 - - - - - - -
22/12:00am 18.9 W 11 14 1016.4 - 0.0 - - - - - - -
 
Date/Time
WST
Temp
°C
Wind Pressure Rain since
9am
mm
Weather Cloud Vis
km
Sea
Height
m
Swell
Dir  Spd
kts
Gust
kts
hPa Trend Height
m
Period
s
Dir
21/11:30pm 18.9 W 10 13 1016.6 - 0.0 - - - - - - -
21/11:00pm 19.1 W 11 13 1016.7 - 0.0 - - - - - - -
21/10:30pm 19.6 W 13 17 1016.7 - 0.0 - - - - - - -
21/10:00pm 20.0 W 12 15 1016.7 - 0.0 - - - - - - -
21/09:30pm 20.1 W 11 14 1016.5 - 0.0 - - - - - - -
21/09:00pm 20.6 W 11 14 1016.3 - 0.0 - - - - - - -
21/08:30pm 21.0 WNW 11 14 1016.1 - 0.0 - - - - - - -
21/08:00pm 21.6 WNW 12 15 1015.9 - 0.0 - - - - - - -
21/07:30pm 21.9 WNW 11 13 1015.5 - 0.0 - - - - - - -
21/07:00pm 22.5 WNW 10 13 1015.1 - 0.0 - - - - - - -
21/06:30pm 23.3 WNW 12 15 1014.6 - 0.0 - - - - - - -
21/06:00pm 24.8 W 9 13 1014.2 - 0.0 - - - - - - -
21/05:30pm 26.7 W 10 13 1013.8 - 0.0 - - - - - - -
21/05:00pm 28.0 WNW 9 12 1013.7 - 0.0 - - - - - - -
21/04:30pm 28.4 NW 11 14 1013.6 - 0.0 - - - - - - -
21/04:00pm 28.6 NNW 11 13 1013.4 - 0.0 - - - - - - -
21/03:30pm 30.0 NNW 11 13 1013.2 - 0.0 - - - - - - -
21/03:00pm 30.7 NW 7 14 1013.2 - 0.0 - - - - - - -
21/02:30pm 31.2 W 5 9 1013.4 - 0.0 - - - - - - -
21/02:00pm 30.4 WNW 7 11 1013.7 - 0.0 - - - - - - -
21/01:30pm 30.8 WNW 8 12 1013.9 - 0.0 - - - - - - -
21/01:00pm 30.2 NNW 9 13 1014.3 - 0.0 - - - - - - -
21/12:30pm 30.1 W 3 8 1014.7 - 0.0 - - - - - - -
21/12:00pm 29.4 WSW 6 10 1015.2 - 0.0 - - - - - - -
21/11:30am 29.2 W 4 6 1015.6 - 0.0 - - - - - - -
21/11:00am 28.4 ESE 5 7 1016.0 - 0.0 - - - - - - -
21/10:30am 27.7 ESE 5 7 1016.2 - 0.0 - - - - - - -
21/10:00am 26.3 ESE 4 5 1016.5 - 0.0 - - - - - - -
21/09:30am 24.9 SSE 4 6 1016.5 - 0.0 - - - - - - -
21/09:00am 23.7 CALM 0 0 1016.5 - 0.0 - - - - - - -
21/08:30am 20.9 CALM 0 0 1016.3 - 0.0 - - - - - - -
21/08:00am 16.9 CALM 0 0 1016.0 - 0.0 - - - - - - -
21/07:30am 13.2 CALM 0 0 1015.7 - 0.0 - - - - - - -
21/07:00am 11.3 CALM 0 0 1015.4 - 0.0 - - - - - - -
21/06:30am 12.7 SW 1 3 1015.0 - 0.0 - - - - - - -
21/06:00am 13.9 SW 4 5 1014.6 - 0.0 - - - - - - -
21/05:30am 13.6 SW 5 6 1014.4 - 0.0 - - - - - - -
21/05:00am 12.9 SW 6 6 1014.2 - 0.0 - - - - - - -
21/04:30am 11.8 SW 6 6 1014.1 - 0.0 - - - - - - -
21/04:00am 12.4 SW 3 4 1014.0 - 0.0 - - - - - - -
21/03:30am 13.4 SW 3 3 1014.1 - 0.0 - - - - - - -
21/03:00am 12.6 SW 4 5 1014.1 - 0.0 - - - - - - -
21/02:30am 12.6 SW 3 4 1014.3 - 0.0 - - - - - - -
21/02:00am 13.4 WSW 4 5 1014.6 - 0.0 - - - - - - -
21/01:30am 12.8 WSW 4 5 1014.7 - 0.0 - - - - - - -
21/01:00am 13.0 W 4 5 1014.8 - 0.0 - - - - - - -
21/12:30am 13.6 WNW 4 4 1014.8 - 0.0 - - - - - - -
21/12:00am 13.8 NNW 2 3 1014.8 - 0.0 - - - - - - -
 
Date/Time
WST
Temp
°C
Wind Pressure Rain since
9am
mm
Weather Cloud Vis
km
Sea
Height
m
Swell
Dir  Spd
kts
Gust
kts
hPa Trend Height
m
Period
s
Dir
20/11:30pm 15.4 W 3 4 1014.6 - 0.0 - - - - - - -
20/11:00pm 15.0 WSW 3 3 1014.6 - 0.0 - - - - - - -
20/10:30pm 15.9 WSW 3 4 1014.7 - 0.0 - - - - - - -
20/10:00pm 16.3 S 2 3 1014.7 - 0.0 - - - - - - -
20/09:30pm 17.0 S 4 5 1014.6 - 0.0 - - - - - - -
20/09:00pm 18.1 NW 5 6 1014.5 - 0.0 - - - - - - -
20/08:30pm 19.3 NNW 4 5 1014.3 - 0.0 - - - - - - -
20/08:00pm 19.1 NNW 4 5 1014.1 - 0.0 - - - - - - -
20/07:30pm 20.1 NW 3 4 1013.8 - 0.0 - - - - - - -
20/07:00pm 21.4 NNW 7 9 1013.4 - 0.0 - - - - - - -
20/06:30pm 22.2 NNW 8 9 1013.1 - 0.0 - - - - - - -
20/06:00pm 23.5 NNW 8 9 1012.7 - 0.0 - - - - - - -
20/05:30pm 25.6 NNW 10 12 1012.5 - 0.0 - - - - - - -
20/05:00pm 28.0 N 9 12 1012.2 - 0.0 - - - - - - -
20/04:30pm 29.4 N 11 13 1012.1 - 0.0 - - - - - - -
20/04:00pm 29.9 N 10 13 1012.1 - 0.0 - - - - - - -
20/03:30pm 30.7 N 11 14 1012.1 - 0.0 - - - - - - -
20/03:00pm 30.8 N 9 13 1012.2 - 0.0 - - - - - - -
20/02:30pm 31.3 NNE 10 15 1012.2 - 0.0 - - - - - - -
20/02:00pm 31.5 ESE 3 7 1012.5 - 0.0 - - - - - - -
20/01:30pm 31.2 SW 4 7 1013.1 - 0.0 - - - - - - -
20/01:00pm 30.9 ESE 4 6 1013.5 - 0.0 - - - - - - -
20/12:30pm 30.4 S 4 7 1013.9 - 0.0 - - - - - - -
20/12:00pm 30.4 WSW 6 10 1014.5 - 0.0 - - - - - - -
20/11:30am 30.0 SW 7 10 1015.1 - 0.0 - - - - - - -
20/11:00am 28.9 SSW 6 10 1015.5 - 0.0 - - - - - - -
20/10:30am 28.7 S 6 9 1015.9 - 0.0 - - - - - - -
20/10:00am 26.8 S 5 8 1016.3 - 0.0 - - - - - - -
20/09:30am 25.1 SW 6 8 1016.4 - 0.0 - - - - - - -
20/09:00am 23.1 SW 6 7 1016.4 - 0.0 - - - - - - -
20/08:30am 20.7 WSW 3 5 1016.1 - 0.0 - - - - - - -
20/08:00am 17.4 CALM 0 0 1015.8 - 0.0 - - - - - - -
20/07:30am 13.3 CALM 0 0 1015.5 - 0.0 - - - - - - -
20/07:00am 10.7 SW 4 4 1015.2 - 0.0 - - - - - - -
20/06:30am 11.1 CALM 0 0 1015.0 - 0.0 - - - - - - -
20/06:00am 10.5 SW 2 3 1014.8 - 0.0 - - - - - - -
20/05:30am 12.7 WSW 4 4 1014.7 - 0.0 - - - - - - -
20/05:00am 11.3 SW 4 5 1014.6 - 0.0 - - - - - - -
20/04:30am 12.2 W 5 5 1014.4 - 0.0 - - - - - - -
20/04:00am 13.4 WSW 6 6 1014.4 - 0.0 - - - - - - -
20/03:30am 12.8 WSW 6 7 1014.5 - 0.0 - - - - - - -
20/03:00am 15.5 WSW 5 6 1014.7 - 0.0 - - - - - - -
20/02:30am 17.1 WSW 6 7 1015.0 - 0.0 - - - - - - -
20/02:00am 16.9 W 7 9 1015.3 - 0.0 - - - - - - -
20/01:30am 18.9 WSW 8 10 1015.5 - 0.0 - - - - - - -
20/01:00am 17.8 WSW 9 10 1015.7 - 0.0 - - - - - - -
20/12:30am 14.9 WSW 3 5 1015.8 - 0.0 - - - - - - -
20/12:00am 14.8 WSW 3 4 1015.9 - 0.0 - - - - - - -
 
Date/Time
WST
Temp
°C
Wind Pressure Rain since
9am
mm
Weather Cloud Vis
km
Sea
Height
m
Swell
Dir  Spd
kts
Gust
kts
hPa Trend Height
m
Period
s
Dir
19/11:30pm 15.5 SW 3 4 1016.0 - 0.0 - - - - - - -
19/11:00pm 16.5 WSW 4 5 1015.9 - 0.0 - - - - - - -

Other Formats:

Comma delimited format used in spreadsheet applications
http://www.bom.gov.au/fwo/IDW60701/IDW60701.94308.axf

JavaScript Object Notation format (JSON) in row-major order
http://www.bom.gov.au/fwo/IDW60701/IDW60701.94308.json